Time;durP1;ratioP1;P1;durP2;ratioP2;P2;SDS_P1;SDS_P2;PMS_P1;PMS_P2;Temp;Humidity;BMP_temperature;BMP_pressure;BME280_temperature;BME280_humidity;BME280_pressure;Samples;Min_cycle;Max_cycle;Signal;HPM_P1;HPM_P2
2023/05/04 00:02:06;;;;;;;5.55;3.85;;;;;15.40;102202.00;;;;5051269;28;20758;-79
2023/05/04 00:04:33;;;;;;;5.22;4.50;;;;;15.40;102202.00;;;;5054166;28;20579;-79
2023/05/04 00:07:01;;;;;;;6.85;4.85;;;;;15.40;102191.00;;;;5051229;28;20203;-78
2023/05/04 00:09:28;;;;;;;5.07;3.75;;;;;15.40;102190.00;;;;5058021;28;20200;-79
2023/05/04 00:11:55;;;;;;;5.38;4.63;;;;;15.40;102191.00;;;;5058420;28;20226;-79
2023/05/04 00:14:23;;;;;;;6.18;4.40;;;;;15.30;102186.00;;;;5054928;28;20202;-80
2023/05/04 00:16:51;;;;;;;5.47;4.50;;;;;15.30;102182.00;;;;5052995;28;20202;-79
2023/05/04 00:19:19;;;;;;;5.28;4.32;;;;;15.30;102177.00;;;;5064654;28;20204;-79
2023/05/04 00:21:46;;;;;;;5.63;4.72;;;;;15.30;102172.00;;;;5070209;28;20198;-80
2023/05/04 00:24:13;;;;;;;5.28;4.78;;;;;15.20;102179.00;;;;5056001;28;20197;-79
2023/05/04 00:26:41;;;;;;;7.82;4.30;;;;;15.20;102176.00;;;;5059924;28;20195;-79
2023/05/04 00:29:08;;;;;;;5.88;5.00;;;;;15.20;102176.00;;;;5053278;28;20198;-78
2023/05/04 00:31:35;;;;;;;9.82;4.88;;;;;15.20;102172.00;;;;5050583;28;20238;-79
2023/05/04 00:34:04;;;;;;;6.32;4.72;;;;;15.20;102162.00;;;;5051916;28;20231;-79
2023/05/04 00:36:31;;;;;;;5.30;4.43;;;;;15.20;102165.00;;;;5061588;28;20203;-79
2023/05/04 00:38:58;;;;;;;6.43;4.97;;;;;15.10;102169.00;;;;5055981;28;20214;-79
2023/05/04 00:41:26;;;;;;;6.03;4.72;;;;;15.10;102155.00;;;;5061729;28;20199;-79
2023/05/04 00:43:53;;;;;;;6.80;4.85;;;;;15.10;102152.00;;;;5057798;28;20226;-78
2023/05/04 00:46:21;;;;;;;6.35;5.05;;;;;15.10;102145.00;;;;5065101;28;20203;-78
2023/05/04 00:48:51;;;;;;;5.75;4.85;;;;;15.00;102146.00;;;;5068492;28;20202;-79
2023/05/04 00:51:22;;;;;;;7.68;4.40;;;;;15.00;102144.00;;;;5061729;28;20713;-79
2023/05/04 00:53:50;;;;;;;6.85;4.95;;;;;15.00;102144.00;;;;5050034;28;20199;-79
2023/05/04 00:56:17;;;;;;;6.55;4.78;;;;;15.00;102147.00;;;;5050125;28;20709;-79
2023/05/04 00:58:45;;;;;;;5.70;4.78;;;;;15.00;102140.00;;;;5053480;28;20200;-79
2023/05/04 01:01:12;;;;;;;5.88;4.60;;;;;14.90;102144.00;;;;5068275;28;20213;-79
2023/05/04 01:03:40;;;;;;;10.10;4.80;;;;;14.90;102147.00;;;;5049734;28;20197;-79
2023/05/04 01:06:15;;;;;;;7.15;5.50;;;;;14.80;102142.00;;;;5064781;28;20194;-79
2023/05/04 01:08:49;;;;;;;5.65;5.10;;;;;14.80;102139.00;;;;5058044;28;20200;-78
2023/05/04 01:11:20;;;;;;;6.53;4.90;;;;;14.80;102135.00;;;;5066407;28;20226;-79
2023/05/04 01:13:48;;;;;;;5.50;4.85;;;;;14.80;102128.00;;;;5054873;28;20647;-79
2023/05/04 01:16:16;;;;;;;6.40;5.07;;;;;14.80;102128.00;;;;5052794;28;20961;-79
2023/05/04 01:18:43;;;;;;;4.93;4.43;;;;;14.80;102130.00;;;;5064285;28;20191;-78
2023/05/04 01:21:11;;;;;;;10.48;5.00;;;;;14.80;102127.00;;;;5052790;28;20215;-78
2023/05/04 01:23:39;;;;;;;7.13;4.93;;;;;14.80;102135.00;;;;5066353;28;20256;-78
2023/05/04 01:26:14;;;;;;;5.53;4.90;;;;;14.70;102127.00;;;;5063440;28;20198;-78
2023/05/04 01:28:44;;;;;;;5.03;4.53;;;;;14.70;102112.00;;;;5057168;28;20195;-79
2023/05/04 01:31:15;;;;;;;5.78;5.18;;;;;14.70;102112.00;;;;5062691;28;20711;-79
2023/05/04 01:33:44;;;;;;;5.50;4.90;;;;;14.70;102127.00;;;;5053472;28;20305;-80
2023/05/04 01:36:11;;;;;;;7.22;4.97;;;;;14.70;102115.00;;;;5064587;28;20202;-79
2023/05/04 01:38:41;;;;;;;5.45;4.78;;;;;14.70;102120.00;;;;5069578;28;20191;-80
2023/05/04 01:41:09;;;;;;;8.20;4.90;;;;;14.70;102116.00;;;;5050412;28;20196;-79
2023/05/04 01:43:36;;;;;;;5.07;4.57;;;;;14.70;102117.00;;;;5057483;28;20214;-79
2023/05/04 01:46:03;;;;;;;9.93;4.75;;;;;14.70;102119.00;;;;5063899;28;20565;-80
2023/05/04 01:48:31;;;;;;;6.20;4.95;;;;;14.60;102120.00;;;;5053686;28;20203;-79
2023/05/04 01:50:58;;;;;;;9.85;5.00;;;;;14.60;102115.00;;;;5049426;28;20394;-80
2023/05/04 01:53:25;;;;;;;6.47;4.63;;;;;14.60;102117.00;;;;5049914;28;20218;-80
2023/05/04 01:55:54;;;;;;;6.53;4.82;;;;;14.60;102110.00;;;;5053197;28;20227;-80
2023/05/04 01:58:21;;;;;;;4.90;4.40;;;;;14.60;102112.00;;;;5053914;28;20200;-80
2023/05/04 02:00:48;;;;;;;4.45;4.05;;;;;14.60;102115.00;;;;5066735;28;20319;-80
2023/05/04 02:03:16;;;;;;;5.65;4.18;;;;;14.60;102114.00;;;;5068599;28;20199;-79
2023/05/04 02:05:43;;;;;;;5.15;4.38;;;;;14.60;102102.00;;;;5068881;28;20195;-79
2023/05/04 02:08:10;;;;;;;7.63;5.47;;;;;14.60;102109.00;;;;5065188;28;20207;-80
2023/05/04 02:10:37;;;;;;;5.55;4.88;;;;;14.60;102099.00;;;;5060497;28;20301;-80
2023/05/04 02:13:06;;;;;;;6.07;4.25;;;;;14.60;102097.00;;;;5065864;28;20233;-80
2023/05/04 02:15:33;;;;;;;4.82;4.32;;;;;14.60;102094.00;;;;5048537;28;20200;-79
2023/05/04 02:18:01;;;;;;;11.45;5.10;;;;;14.60;102087.00;;;;5065921;28;20221;-79
2023/05/04 02:20:28;;;;;;;5.38;4.88;;;;;14.60;102096.00;;;;5049626;28;20202;-79
2023/05/04 02:22:55;;;;;;;8.45;5.20;;;;;14.50;102094.00;;;;5048858;28;20203;-79
2023/05/04 02:25:23;;;;;;;4.53;4.07;;;;;14.50;102089.00;;;;5050859;28;20553;-79
2023/05/04 02:27:50;;;;;;;5.53;4.50;;;;;14.50;102094.00;;;;5049308;28;20195;-78
2023/05/04 02:30:19;;;;;;;5.20;4.63;;;;;14.40;102088.00;;;;5057688;28;20218;-80
2023/05/04 02:32:47;;;;;;;6.55;4.75;;;;;14.50;102087.00;;;;5052360;28;20310;-79
2023/05/04 02:35:14;;;;;;;5.18;4.25;;;;;14.40;102079.00;;;;5055563;28;20202;-78
2023/05/04 02:37:41;;;;;;;5.00;3.78;;;;;14.40;102079.00;;;;5059927;28;20194;-79
2023/05/04 02:40:10;;;;;;;4.40;3.92;;;;;14.40;102078.00;;;;5054108;28;20199;-78
2023/05/04 02:42:37;;;;;;;5.05;4.22;;;;;14.40;102078.00;;;;5057154;28;20199;-79
2023/05/04 02:45:06;;;;;;;6.50;4.15;;;;;14.40;102078.00;;;;5052819;28;20204;-79
2023/05/04 02:47:35;;;;;;;6.68;4.75;;;;;14.30;102064.00;;;;5067523;28;20260;-79
2023/05/04 02:50:02;;;;;;;6.85;4.07;;;;;14.30;102063.00;;;;5056589;28;20203;-79
2023/05/04 02:52:29;;;;;;;6.05;4.30;;;;;14.30;102066.00;;;;5048878;28;20230;-79
2023/05/04 02:54:57;;;;;;;8.65;4.32;;;;;14.30;102075.00;;;;5054272;28;20195;-79
2023/05/04 02:57:24;;;;;;;5.28;3.90;;;;;14.30;102071.00;;;;5064180;28;20186;-78
2023/05/04 02:59:52;;;;;;;5.85;4.15;;;;;14.30;102068.00;;;;5055553;28;20192;-79
2023/05/04 03:02:19;;;;;;;5.03;3.85;;;;;14.30;102065.00;;;;5055827;28;20207;-79
2023/05/04 03:04:48;;;;;;;7.00;4.22;;;;;14.30;102069.00;;;;5072355;28;20191;-79
2023/05/04 03:07:15;;;;;;;6.35;4.05;;;;;14.30;102070.00;;;;5062217;28;20209;-79
2023/05/04 03:09:43;;;;;;;4.88;4.43;;;;;14.30;102066.00;;;;5068976;28;20660;-79
2023/05/04 03:12:10;;;;;;;7.50;4.63;;;;;14.20;102068.00;;;;5059824;28;20218;-79
2023/05/04 03:14:37;;;;;;;7.82;4.07;;;;;14.20;102066.00;;;;5071627;28;20195;-80
2023/05/04 03:17:05;;;;;;;6.80;4.32;;;;;14.20;102066.00;;;;5064324;28;20214;-78
2023/05/04 03:19:32;;;;;;;5.90;3.85;;;;;14.20;102063.00;;;;5058311;28;20610;-79
2023/05/04 03:22:01;;;;;;;4.90;3.60;;;;;14.20;102057.00;;;;5055511;28;20665;-79
2023/05/04 03:24:28;;;;;;;5.03;4.00;;;;;14.20;102059.00;;;;5056024;28;20205;-78
2023/05/04 03:26:56;;;;;;;6.35;3.90;;;;;14.20;102056.00;;;;5055025;28;20198;-79
2023/05/04 03:29:26;;;;;;;4.40;3.90;;;;;14.20;102053.00;;;;5055122;28;20725;-79
2023/05/04 03:31:53;;;;;;;4.97;3.53;;;;;14.10;102046.00;;;;5062696;28;20230;-79
2023/05/04 03:34:21;;;;;;;4.40;4.00;;;;;14.10;102049.00;;;;5070342;28;20234;-79
2023/05/04 03:36:49;;;;;;;4.72;4.25;;;;;14.10;102036.00;;;;5054930;28;20192;-79
2023/05/04 03:39:17;;;;;;;4.63;3.60;;;;;14.10;102040.00;;;;5055638;28;20562;-79
2023/05/04 03:41:45;;;;;;;5.10;4.10;;;;;14.10;102046.00;;;;5057246;28;20693;-79
2023/05/04 03:44:12;;;;;;;4.05;3.67;;;;;14.10;102040.00;;;;5067355;28;20199;-79
2023/05/04 03:46:39;;;;;;;5.18;4.15;;;;;14.00;102034.00;;;;5069157;28;20218;-79
2023/05/04 03:49:07;;;;;;;4.25;3.63;;;;;14.00;102039.00;;;;5070788;28;20195;-79
2023/05/04 03:51:34;;;;;;;5.93;3.92;;;;;14.00;102028.00;;;;5058020;28;20206;-79
2023/05/04 03:54:02;;;;;;;4.57;3.85;;;;;14.00;102039.00;;;;5072342;28;20203;-78
2023/05/04 03:56:30;;;;;;;5.55;4.20;;;;;14.00;102038.00;;;;5072499;28;20198;-78
2023/05/04 03:58:58;;;;;;;5.95;4.53;;;;;14.00;102036.00;;;;5057935;28;20218;-79
2023/05/04 04:01:25;;;;;;;4.97;3.72;;;;;14.00;102035.00;;;;5057905;28;20195;-79
2023/05/04 04:03:52;;;;;;;5.80;4.72;;;;;13.90;102029.00;;;;5071601;28;20794;-79
2023/05/04 04:06:20;;;;;;;6.32;4.47;;;;;13.90;102031.00;;;;5054380;28;20199;-79
2023/05/04 04:08:47;;;;;;;5.03;4.30;;;;;13.90;102027.00;;;;5053828;28;20187;-78
2023/05/04 04:11:14;;;;;;;6.05;5.07;;;;;13.90;102020.00;;;;5051457;28;20206;-79
2023/05/04 04:13:43;;;;;;;5.22;4.20;;;;;13.90;102033.00;;;;5053147;28;20223;-79
2023/05/04 04:16:10;;;;;;;4.97;3.70;;;;;13.90;102029.00;;;;5056203;28;20199;-79
2023/05/04 04:18:38;;;;;;;7.20;3.97;;;;;13.90;102029.00;;;;5068731;28;20199;-79
2023/05/04 04:21:05;;;;;;;6.15;4.28;;;;;13.90;102023.00;;;;5051103;28;20207;-79
2023/05/04 04:23:33;;;;;;;5.78;4.65;;;;;13.90;102023.00;;;;5070514;28;20556;-79
2023/05/04 04:26:00;;;;;;;6.85;4.47;;;;;13.90;102022.00;;;;5062731;28;20194;-79
2023/05/04 04:28:28;;;;;;;6.18;4.47;;;;;13.90;102021.00;;;;5058007;28;20199;-79
2023/05/04 04:30:57;;;;;;;5.68;4.25;;;;;13.80;102032.00;;;;5067294;28;20207;-79
2023/05/04 04:33:24;;;;;;;8.00;4.57;;;;;13.80;102017.00;;;;5056400;28;20231;-79
2023/05/04 04:35:52;;;;;;;6.63;4.10;;;;;13.90;102018.00;;;;5059324;28;20283;-79
2023/05/04 04:38:19;;;;;;;6.90;4.53;;;;;13.90;102013.00;;;;5057644;28;20203;-79
2023/05/04 04:40:46;;;;;;;6.03;4.13;;;;;13.80;102020.00;;;;5064876;28;20195;-79
2023/05/04 04:43:14;;;;;;;5.45;4.47;;;;;13.90;102017.00;;;;5055445;28;20210;-79
2023/05/04 04:45:41;;;;;;;7.88;4.47;;;;;13.90;102014.00;;;;5051094;28;20203;-79
2023/05/04 04:48:11;;;;;;;7.32;4.20;;;;;13.90;102016.00;;;;5050606;28;20256;-79
2023/05/04 04:50:39;;;;;;;5.85;4.60;;;;;13.90;102017.00;;;;5064758;28;20203;-78
2023/05/04 04:53:06;;;;;;;5.97;4.68;;;;;13.90;102017.00;;;;5070001;28;20696;-79
2023/05/04 04:55:35;;;;;;;7.40;4.80;;;;;13.90;102016.00;;;;5056070;28;20766;-79
2023/05/04 04:58:02;;;;;;;5.18;4.45;;;;;13.90;102012.00;;;;5059567;28;20207;-79
2023/05/04 05:00:30;;;;;;;6.28;4.82;;;;;13.90;102023.00;;;;5051215;28;20282;-79
2023/05/04 05:02:58;;;;;;;7.05;5.35;;;;;14.00;102017.00;;;;5053541;28;20199;-79
2023/05/04 05:05:26;;;;;;;5.90;4.55;;;;;14.00;102016.00;;;;5059147;28;20199;-79
2023/05/04 05:07:54;;;;;;;5.57;4.63;;;;;14.00;102016.00;;;;5070063;28;20191;-79
2023/05/04 05:10:21;;;;;;;4.72;3.95;;;;;14.00;102016.00;;;;5061922;28;20194;-79
2023/05/04 05:12:50;;;;;;;6.85;4.88;;;;;14.00;102011.00;;;;5056360;28;20300;-79
2023/05/04 05:15:17;;;;;;;6.97;4.30;;;;;14.10;102015.00;;;;5060309;28;20195;-79
2023/05/04 05:17:45;;;;;;;7.18;4.50;;;;;14.10;102010.00;;;;5060768;28;20752;-79
2023/05/04 05:20:14;;;;;;;6.15;4.70;;;;;14.10;102011.00;;;;5054047;28;20591;-79
2023/05/04 05:22:42;;;;;;;5.63;4.30;;;;;14.10;102005.00;;;;5054535;28;20214;-79
2023/05/04 05:25:11;;;;;;;5.60;4.68;;;;;14.20;102005.00;;;;5049102;28;20246;-79
2023/05/04 05:27:38;;;;;;;6.15;4.72;;;;;14.20;101998.00;;;;5051043;28;21007;-79
2023/05/04 05:30:07;;;;;;;5.63;4.00;;;;;14.30;101999.00;;;;5049905;28;20223;-81
2023/05/04 05:32:34;;;;;;;5.10;4.50;;;;;14.30;102004.00;;;;5061168;28;20223;-80
2023/05/04 05:35:02;;;;;;;5.43;4.25;;;;;14.30;102002.00;;;;5054908;28;20203;-80
2023/05/04 05:37:29;;;;;;;5.70;4.53;;;;;14.40;102001.00;;;;5055606;28;20196;-80
2023/05/04 05:39:58;;;;;;;6.03;4.63;;;;;14.40;102002.00;;;;5058290;28;20199;-79
2023/05/04 05:42:25;;;;;;;6.13;4.30;;;;;14.40;102011.00;;;;5053295;28;20196;-79
2023/05/04 05:44:52;;;;;;;4.60;4.13;;;;;14.50;102006.00;;;;5050161;28;20204;-79
2023/05/04 05:47:20;;;;;;;7.68;4.60;;;;;14.60;102001.00;;;;5053518;28;20202;-79
2023/05/04 05:49:47;;;;;;;7.57;4.68;;;;;14.60;102004.00;;;;5068911;28;20195;-78
2023/05/04 05:52:15;;;;;;;6.10;4.60;;;;;14.70;102003.00;;;;5063249;28;20195;-79
2023/05/04 05:54:42;;;;;;;5.68;4.57;;;;;14.70;102009.00;;;;5058314;28;20184;-78
2023/05/04 05:57:16;;;;;;;7.63;5.20;;;;;14.70;101999.00;;;;5061161;28;20211;-79
2023/05/04 05:59:44;;;;;;;4.68;4.18;;;;;14.80;101998.00;;;;5049751;28;20671;-79
2023/05/04 06:02:13;;;;;;;5.55;4.15;;;;;14.90;101998.00;;;;5064640;28;20191;-79
2023/05/04 06:04:40;;;;;;;6.18;4.40;;;;;15.00;101998.00;;;;5050512;28;20192;-80
2023/05/04 06:07:09;;;;;;;5.45;4.55;;;;;15.00;101992.00;;;;5053047;28;20195;-80
2023/05/04 06:09:36;;;;;;;5.55;4.72;;;;;15.10;101995.00;;;;5065987;28;20682;-79
2023/05/04 06:12:05;;;;;;;6.30;4.60;;;;;15.20;101997.00;;;;5054281;28;20563;-79
2023/05/04 06:14:34;;;;;;;6.63;4.13;;;;;15.30;102001.00;;;;5051724;28;20242;-80
2023/05/04 06:17:02;;;;;;;4.90;4.30;;;;;15.40;101995.00;;;;5051111;28;20580;-80
2023/05/04 06:19:39;;;;;;;6.18;4.28;;;;;15.40;101992.00;;;;5049078;28;20202;-79
2023/05/04 06:22:06;;;;;;;5.57;4.45;;;;;15.50;101994.00;;;;5049324;28;20548;-79
2023/05/04 06:24:33;;;;;;;5.40;3.95;;;;;15.60;101988.00;;;;5064159;28;20203;-78
2023/05/04 06:27:02;;;;;;;5.38;4.07;;;;;15.70;101986.00;;;;5048054;28;20202;-79
2023/05/04 06:29:29;;;;;;;5.88;4.47;;;;;15.70;101984.00;;;;5048406;28;20200;-80
2023/05/04 06:31:58;;;;;;;5.55;4.07;;;;;15.80;101974.00;;;;5048544;28;20215;-81
2023/05/04 06:34:26;;;;;;;4.55;4.15;;;;;15.90;101977.00;;;;5058182;28;20243;-78
2023/05/04 06:36:53;;;;;;;5.10;4.60;;;;;16.00;101969.00;;;;5053822;28;20206;-79
2023/05/04 06:39:20;;;;;;;5.07;3.90;;;;;16.00;101972.00;;;;5054260;28;20226;-80
2023/05/04 06:41:47;;;;;;;4.00;3.60;;;;;16.10;101973.00;;;;5055248;28;20206;-79
2023/05/04 06:44:16;;;;;;;6.30;4.38;;;;;16.20;101972.00;;;;5048959;28;20203;-80
2023/05/04 06:46:43;;;;;;;5.00;4.18;;;;;16.20;101972.00;;;;5050429;28;20202;-79
2023/05/04 06:49:12;;;;;;;5.22;4.45;;;;;16.30;101969.00;;;;5048495;28;20196;-81
2023/05/04 06:51:39;;;;;;;5.07;4.28;;;;;16.40;101964.00;;;;5067659;28;20209;-81
2023/05/04 06:54:06;;;;;;;6.22;4.43;;;;;16.40;101964.00;;;;5067670;28;20230;-81
2023/05/04 06:56:41;;;;;;;6.53;4.38;;;;;16.40;101963.00;;;;5068956;28;20214;-80
2023/05/04 06:59:08;;;;;;;5.80;4.15;;;;;16.50;101961.00;;;;5067927;28;20309;-81
2023/05/04 07:01:36;;;;;;;4.95;4.10;;;;;16.60;101961.00;;;;5053543;28;20224;-81
2023/05/04 07:04:04;;;;;;;5.30;4.45;;;;;16.70;101961.00;;;;5056915;28;20210;-82
2023/05/04 07:06:32;;;;;;;5.68;4.18;;;;;16.70;101954.00;;;;5068174;28;20552;-81
2023/05/04 07:09:00;;;;;;;4.72;3.95;;;;;16.80;101955.00;;;;5059888;28;20768;-81
2023/05/04 07:11:27;;;;;;;5.30;4.25;;;;;17.00;101949.00;;;;5052406;28;20245;-79
2023/05/04 07:13:55;;;;;;;5.47;4.70;;;;;17.10;101944.00;;;;5048199;28;20238;-78
2023/05/04 07:16:22;;;;;;;4.85;4.00;;;;;17.20;101948.00;;;;5061854;28;20203;-77
2023/05/04 07:18:49;;;;;;;6.20;3.97;;;;;17.30;101944.00;;;;5066844;28;20191;-79
2023/05/04 07:21:17;;;;;;;5.90;4.40;;;;;17.50;101942.00;;;;5060459;28;20199;-78
2023/05/04 07:23:45;;;;;;;4.65;3.70;;;;;17.60;101944.00;;;;5055538;28;20207;-79
2023/05/04 07:26:13;;;;;;;4.32;3.78;;;;;17.70;101941.00;;;;5053474;28;20576;-78
2023/05/04 07:28:42;;;;;;;4.13;3.70;;;;;17.80;101937.00;;;;5059729;28;20691;-78
2023/05/04 07:31:11;;;;;;;4.38;3.85;;;;;17.90;101934.00;;;;5058389;28;20215;-79
2023/05/04 07:33:39;;;;;;;4.03;3.45;;;;;18.00;101937.00;;;;5052069;28;20242;-78
2023/05/04 07:36:06;;;;;;;7.00;4.57;;;;;18.10;101935.00;;;;5061916;28;20204;-79
2023/05/04 07:38:34;;;;;;;5.53;3.97;;;;;18.20;101942.00;;;;5063438;28;20676;-79
2023/05/04 07:41:02;;;;;;;4.32;3.72;;;;;18.30;101940.00;;;;5065496;28;20210;-80
2023/05/04 07:43:30;;;;;;;4.13;3.13;;;;;18.40;101942.00;;;;5063999;28;20916;-80
2023/05/04 07:45:57;;;;;;;5.53;3.65;;;;;18.60;101941.00;;;;5055877;28;20195;-79
2023/05/04 07:48:24;;;;;;;3.92;3.53;;;;;18.70;101942.00;;;;5053153;28;20199;-79
2023/05/04 07:50:52;;;;;;;4.15;3.60;;;;;18.80;101947.00;;;;5063603;28;20202;-79
2023/05/04 07:53:20;;;;;;;4.90;3.70;;;;;19.00;101935.00;;;;5065783;28;20250;-80
2023/05/04 07:55:48;;;;;;;3.83;3.42;;;;;19.20;101944.00;;;;5070954;28;20598;-79
2023/05/04 07:58:16;;;;;;;7.70;4.25;;;;;19.30;101933.00;;;;5070546;28;20229;-79
2023/05/04 08:00:43;;;;;;;3.65;3.20;;;;;19.50;101935.00;;;;5061217;28;20573;-79
2023/05/04 08:03:11;;;;;;;3.53;2.95;;;;;19.60;101928.00;;;;5056403;28;20198;-79
2023/05/04 08:05:38;;;;;;;3.85;3.22;;;;;19.80;101926.00;;;;5051927;28;20210;-79
2023/05/04 08:08:06;;;;;;;5.00;3.35;;;;;19.90;101921.00;;;;5063898;28;20214;-79
2023/05/04 08:10:36;;;;;;;4.82;3.60;;;;;20.00;101923.00;;;;5071328;28;20218;-79
2023/05/04 08:13:04;;;;;;;4.85;3.47;;;;;20.20;101915.00;;;;5069842;28;20220;-78
2023/05/04 08:15:32;;;;;;;6.43;3.83;;;;;20.30;101911.00;;;;5071583;28;20201;-79
2023/05/04 08:18:00;;;;;;;5.00;2.90;;;;;20.50;101919.00;;;;5069132;28;20198;-79
2023/05/04 08:20:27;;;;;;;4.22;2.95;;;;;20.60;101907.00;;;;5050735;28;20202;-79
2023/05/04 08:22:54;;;;;;;3.45;3.03;;;;;20.70;101910.00;;;;5055994;28;20190;-78
2023/05/04 08:25:22;;;;;;;4.68;3.58;;;;;20.80;101906.00;;;;5059983;28;20602;-79
2023/05/04 08:27:49;;;;;;;5.45;3.53;;;;;21.00;101895.00;;;;5058150;28;20207;-80
2023/05/04 08:30:17;;;;;;;4.30;3.05;;;;;21.10;101891.00;;;;5056184;28;20223;-79
2023/05/04 08:32:47;;;;;;;3.33;2.63;;;;;21.20;101888.00;;;;5067715;28;20661;-80
2023/05/04 08:35:14;;;;;;;4.10;3.22;;;;;21.30;101886.00;;;;5058592;28;20304;-80
2023/05/04 08:37:41;;;;;;;4.38;2.92;;;;;21.40;101885.00;;;;5059087;28;20200;-79
2023/05/04 08:40:09;;;;;;;3.25;2.95;;;;;21.50;101882.00;;;;5066276;28;20207;-80
2023/05/04 08:42:36;;;;;;;5.20;3.40;;;;;21.60;101889.00;;;;5055730;28;20206;-79
2023/05/04 08:45:04;;;;;;;3.67;2.38;;;;;21.70;101885.00;;;;5057233;28;20199;-80
2023/05/04 08:47:32;;;;;;;5.57;3.05;;;;;21.90;101869.00;;;;5064413;28;20207;-80
2023/05/04 08:50:00;;;;;;;4.95;2.80;;;;;21.90;101865.00;;;;5058794;28;20200;-80
2023/05/04 08:52:28;;;;;;;9.82;3.50;;;;;22.10;101872.00;;;;5053635;28;20203;-79
2023/05/04 08:54:56;;;;;;;3.22;2.70;;;;;22.20;101873.00;;;;5051398;28;20237;-78
2023/05/04 08:57:25;;;;;;;3.45;2.85;;;;;22.20;101872.00;;;;5052578;28;20218;-79
2023/05/04 08:59:53;;;;;;;4.05;2.35;;;;;22.30;101864.00;;;;5050596;28;20211;-79
2023/05/04 09:02:21;;;;;;;3.88;2.35;;;;;22.40;101870.00;;;;5056930;28;20206;-80
2023/05/04 09:04:49;;;;;;;5.18;2.53;;;;;22.50;101870.00;;;;5050337;28;20206;-79
2023/05/04 09:07:19;;;;;;;4.18;2.53;;;;;22.60;101872.00;;;;5050442;28;20207;-80
2023/05/04 09:09:47;;;;;;;5.85;2.95;;;;;22.70;101871.00;;;;5066554;28;20210;-80
2023/05/04 09:12:15;;;;;;;8.27;2.92;;;;;22.80;101852.00;;;;5060966;28;20202;-78
2023/05/04 09:14:43;;;;;;;3.28;2.60;;;;;22.90;101851.00;;;;5067701;28;20356;-79
2023/05/04 09:17:16;;;;;;;6.35;2.78;;;;;22.90;101848.00;;;;5061160;28;20203;-79
2023/05/04 09:19:43;;;;;;;2.33;2.05;;;;;23.00;101838.00;;;;5061253;28;20227;-78
2023/05/04 09:22:19;;;;;;;3.10;2.20;;;;;23.10;101842.00;;;;5052071;28;20229;-78
2023/05/04 09:24:46;;;;;;;2.33;1.95;;;;;23.20;101837.00;;;;5068995;28;20195;-77
2023/05/04 09:27:16;;;;;;;1.80;1.70;;;;;23.40;101840.00;;;;5058382;28;20254;-78
2023/05/04 09:29:44;;;;;;;2.03;1.83;;;;;23.50;101838.00;;;;5057681;28;20314;-78
2023/05/04 09:32:13;;;;;;;4.63;2.05;;;;;23.70;101841.00;;;;5056651;28;20218;-77
2023/05/04 09:34:51;;;;;;;4.05;2.10;;;;;23.70;101844.00;;;;5069910;28;20233;-79
2023/05/04 09:37:21;;;;;;;2.55;2.13;;;;;23.90;101842.00;;;;5057213;28;20632;-79
2023/05/04 09:39:53;;;;;;;4.35;1.90;;;;;24.00;101838.00;;;;5059661;28;20644;-79
2023/05/04 09:42:22;;;;;;;2.90;1.90;;;;;24.20;101833.00;;;;5057783;28;20617;-80
2023/05/04 09:45:00;;;;;;;2.90;1.90;;;;;24.30;101830.00;;;;5059050;28;20242;-81
2023/05/04 09:47:38;;;;;;;2.38;1.60;;;;;24.40;101823.00;;;;5051625;28;20199;-81
2023/05/04 09:50:13;;;;;;;2.45;1.60;;;;;24.60;101827.00;;;;5051284;28;20203;-81
2023/05/04 09:52:42;;;;;;;2.10;1.80;;;;;24.80;101828.00;;;;5056010;28;20247;-83
2023/05/04 09:55:13;;;;;;;3.25;1.67;;;;;25.00;101824.00;;;;5050838;28;20269;-81
2023/05/04 09:57:42;;;;;;;2.70;1.50;;;;;25.10;101827.00;;;;5056407;28;20233;-80
2023/05/04 10:00:12;;;;;;;2.60;1.77;;;;;25.30;101822.00;;;;5052339;28;20216;-82
2023/05/04 10:02:39;;;;;;;3.83;1.83;;;;;25.40;101814.00;;;;5068004;28;20563;-81
2023/05/04 10:05:08;;;;;;;2.75;1.77;;;;;25.50;101808.00;;;;5068054;28;20195;-80
2023/05/04 10:07:36;;;;;;;4.00;1.92;;;;;25.70;101810.00;;;;5055246;28;20256;-81
2023/05/04 10:10:06;;;;;;;2.80;1.90;;;;;25.80;101805.00;;;;5059937;28;20195;-79
2023/05/04 10:12:33;;;;;;;3.78;2.45;;;;;26.00;101792.00;;;;5055008;28;20559;-80
2023/05/04 10:15:02;;;;;;;3.15;2.33;;;;;26.00;101807.00;;;;5055112;28;20305;-80
2023/05/04 10:17:45;;;;;;;5.07;2.35;;;;;26.10;101796.00;;;;5049011;28;20199;-81
2023/05/04 10:20:26;;;;;;;3.60;2.50;;;;;26.20;101797.00;;;;5059749;28;20213;-82
2023/05/04 10:23:17;;;;;;;4.95;3.25;;;;;26.20;101797.00;;;;5062921;28;20200;-81
2023/05/04 10:26:05;;;;;;;3.70;2.40;;;;;26.30;101791.00;;;;5054361;28;20195;-82
2023/05/04 10:28:44;;;;;;;4.90;2.50;;;;;26.40;101788.00;;;;5050145;28;20218;-83
2023/05/04 10:31:11;;;;;;;3.40;2.20;;;;;26.50;101780.00;;;;5047975;28;20207;-83
2023/05/04 10:33:39;;;;;;;5.38;2.35;;;;;26.60;101783.00;;;;5060045;28;20237;-85
2023/05/04 10:36:08;;;;;;;4.03;2.70;;;;;26.70;101776.00;;;;5068353;28;20207;-84
2023/05/04 10:38:35;;;;;;;3.22;2.20;;;;;26.80;101774.00;;;;5067345;28;20195;-84
2023/05/04 10:41:14;;;;;;;5.88;2.72;;;;;26.80;101759.00;;;;5060649;28;20313;-83
2023/05/04 10:43:41;;;;;;;3.83;2.55;;;;;26.90;101762.00;;;;5060032;28;20241;-84
2023/05/04 10:46:20;;;;;;;3.03;2.28;;;;;27.00;101756.00;;;;5063177;28;20199;-83
2023/05/04 10:48:47;;;;;;;3.63;2.05;;;;;27.10;101757.00;;;;5068812;28;20198;-85
2023/05/04 10:51:19;;;;;;;3.55;2.45;;;;;27.20;101748.00;;;;5068986;28;20206;-84
2023/05/04 10:53:46;;;;;;;2.92;2.15;;;;;27.30;101739.00;;;;5063129;28;20202;-84
2023/05/04 10:56:23;;;;;;;3.47;2.55;;;;;27.40;101743.00;;;;5053167;28;20206;-82
2023/05/04 10:58:51;;;;;;;2.92;2.28;;;;;27.50;101730.00;;;;5049177;28;20195;-82
2023/05/04 11:01:19;;;;;;;3.30;2.60;;;;;27.60;101732.00;;;;5053696;28;20213;-84
2023/05/04 11:03:48;;;;;;;4.32;2.95;;;;;27.70;101725.00;;;;5054894;28;20196;-82
2023/05/04 11:06:17;;;;;;;2.97;2.35;;;;;27.80;101722.00;;;;5048594;28;20194;-83
2023/05/04 11:08:46;;;;;;;3.83;2.90;;;;;27.80;101721.00;;;;5058020;28;20278;-83
2023/05/04 11:11:13;;;;;;;4.65;2.80;;;;;27.90;101718.00;;;;5048126;28;20196;-82
2023/05/04 11:13:45;;;;;;;3.33;2.70;;;;;28.00;101713.00;;;;5052802;28;20210;-83
2023/05/04 11:16:13;;;;;;;3.65;2.65;;;;;28.00;101702.00;;;;5055658;28;20230;-82
2023/05/04 11:18:41;;;;;;;4.57;3.00;;;;;28.10;101704.00;;;;5062670;28;20942;-82
2023/05/04 11:21:09;;;;;;;3.42;2.63;;;;;28.20;101699.00;;;;5053335;28;20210;-82
2023/05/04 11:23:37;;;;;;;3.28;2.88;;;;;28.20;101700.00;;;;5066496;28;20211;-82
2023/05/04 11:26:07;;;;;;;3.97;3.00;;;;;28.30;101688.00;;;;5065583;28;20200;-81
2023/05/04 11:28:35;;;;;;;4.32;3.42;;;;;28.30;101691.00;;;;5054046;28;20199;-83
2023/05/04 11:31:13;;;;;;;5.72;4.13;;;;;28.30;101686.00;;;;5057108;28;21098;-82
2023/05/04 11:33:46;;;;;;;5.03;3.55;;;;;28.40;101693.00;;;;5057845;28;20219;-83
2023/05/04 11:36:14;;;;;;;4.15;3.55;;;;;28.50;101688.00;;;;5070827;28;20218;-84
2023/05/04 11:39:04;;;;;;;5.15;3.65;;;;;28.50;101682.00;;;;5071242;28;20199;-81
2023/05/04 11:41:32;;;;;;;5.30;3.20;;;;;28.60;101672.00;;;;5068522;28;20547;-82
2023/05/04 11:44:00;;;;;;;6.03;3.08;;;;;28.60;101675.00;;;;5051040;28;20245;-82
2023/05/04 11:46:29;;;;;;;4.53;3.15;;;;;28.60;101669.00;;;;5051957;28;20196;-84
2023/05/04 11:48:58;;;;;;;4.90;3.20;;;;;28.70;101674.00;;;;5051535;28;20203;-83
2023/05/04 11:51:28;;;;;;;4.15;3.63;;;;;28.70;101679.00;;;;5051419;28;20188;-82
2023/05/04 11:53:55;;;;;;;4.93;3.25;;;;;28.70;101665.00;;;;5056251;28;20286;-83
2023/05/04 11:56:23;;;;;;;4.43;3.20;;;;;28.80;101673.00;;;;5060206;28;20223;-83
2023/05/04 11:58:50;;;;;;;4.75;3.63;;;;;28.80;101669.00;;;;5056191;28;20191;-83
2023/05/04 12:01:18;;;;;;;4.68;3.70;;;;;28.80;101672.00;;;;5063616;28;20218;-83
2023/05/04 12:03:46;;;;;;;3.60;3.30;;;;;28.80;101665.00;;;;5054972;28;20199;-83
2023/05/04 12:06:14;;;;;;;4.57;3.60;;;;;28.90;101659.00;;;;5050957;28;20207;-82
2023/05/04 12:08:42;;;;;;;4.53;3.22;;;;;28.90;101654.00;;;;5051792;28;20208;-84
2023/05/04 12:11:15;;;;;;;3.88;3.25;;;;;29.00;101658.00;;;;5056469;28;20223;-82
2023/05/04 12:13:45;;;;;;;6.60;4.28;;;;;29.00;101660.00;;;;5050129;28;20235;-84
2023/05/04 12:16:13;;;;;;;4.35;3.60;;;;;29.00;101659.00;;;;5060150;28;20227;-84